createdAt,value
2018-05-01T12:14:55.817Z,994.74
2018-05-01T12:16:04.071Z,994.87
2018-05-01T12:17:09.253Z,994.88
2018-05-01T12:18:14.628Z,994.82
2018-05-01T12:19:19.001Z,994.92
2018-05-01T12:20:23.276Z,994.83
2018-05-01T12:21:28.638Z,994.88
2018-05-01T12:22:33.897Z,994.95
2018-05-01T12:23:38.063Z,994.89
2018-05-01T12:24:42.429Z,994.93
2018-05-01T12:25:47.893Z,994.93
2018-05-01T12:26:53.150Z,994.97
2018-05-01T12:27:57.512Z,994.98
2018-05-01T12:29:01.873Z,995.1
2018-05-01T12:30:07.261Z,994.97
2018-05-01T12:31:11.519Z,994.92
2018-05-01T12:32:15.879Z,994.98
2018-05-01T12:33:21.246Z,994.98
2018-05-01T12:34:26.502Z,995.01
2018-05-01T12:35:30.869Z,994.99
2018-05-01T12:36:35.194Z,995.01
2018-05-01T12:37:40.488Z,994.95
2018-05-01T12:38:45.758Z,995.07
2018-05-01T12:39:49.926Z,995.07
2018-05-01T12:40:54.200Z,995.05
2018-05-01T12:41:58.467Z,995.01
2018-05-01T12:43:03.729Z,995.11
2018-05-01T12:44:08.989Z,994.99
2018-05-01T12:45:13.249Z,995.11
2018-05-01T12:46:17.623Z,995.06
2018-05-01T12:47:22.889Z,995.05
2018-05-01T12:48:28.180Z,995.14
2018-05-01T12:49:32.438Z,995.09
2018-05-01T12:50:36.702Z,995.15
2018-05-01T12:51:42.068Z,995.18
2018-05-01T12:52:47.330Z,995.18
2018-05-01T12:53:52.780Z,995.24
2018-05-01T12:54:57.033Z,995.28
2018-05-01T12:56:02.305Z,995.16
2018-05-01T12:57:07.573Z,995.21
2018-05-01T12:58:12.838Z,995.1
2018-05-01T12:59:17.317Z,995.21
2018-05-01T13:00:22.487Z,995.25
2018-05-01T13:01:27.879Z,995.27
2018-05-01T13:02:32.140Z,995.31
2018-05-01T13:03:36.399Z,995.24
2018-05-01T13:04:41.660Z,995.25
2018-05-01T13:05:46.940Z,995.19
2018-05-01T13:06:52.295Z,995.28
2018-05-01T13:07:56.680Z,995.36
2018-05-01T13:09:02.038Z,995.4
2018-05-01T13:10:07.300Z,995.34
2018-05-01T13:11:11.571Z,995.3
2018-05-01T13:12:15.935Z,995.27
2018-05-01T13:13:21.192Z,995.24
2018-05-01T13:14:26.551Z,995.21
2018-05-01T13:15:26.108Z,995.27
2018-05-01T13:16:31.530Z,995.31
2018-05-01T13:17:35.740Z,995.31
2018-05-01T13:18:40.100Z,995.34
2018-05-01T13:19:45.463Z,995.36
2018-05-01T13:20:50.732Z,995.34
2018-05-01T13:21:55.002Z,995.47
2018-05-01T13:22:59.298Z,995.55
2018-05-01T13:24:04.560Z,995.53
2018-05-01T13:25:09.824Z,995.53
2018-05-01T13:26:15.188Z,995.55
2018-05-01T13:27:19.488Z,995.55
2018-05-01T13:28:26.655Z,995.7
2018-05-01T13:29:31.931Z,995.46
2018-05-01T13:30:37.203Z,995.44
2018-05-01T13:31:42.559Z,995.43
2018-05-01T13:32:46.918Z,995.64
2018-05-01T13:33:52.292Z,995.46
2018-05-01T13:34:57.552Z,995.53
2018-05-01T13:36:01.821Z,995.69
2018-05-01T13:37:06.190Z,995.55
2018-05-01T13:38:11.455Z,995.52
2018-05-01T13:39:16.709Z,995.53
2018-05-01T13:40:22.080Z,995.53
2018-05-01T13:41:26.437Z,995.52
2018-05-01T13:42:31.698Z,995.61
2018-05-01T13:43:37.059Z,995.63
2018-05-01T13:44:41.323Z,995.61
2018-05-01T13:45:45.592Z,995.6
2018-05-01T13:46:49.854Z,995.69
2018-05-01T13:47:55.113Z,995.63
2018-05-01T13:49:00.396Z,995.7
2018-05-01T13:50:04.640Z,995.75
2018-05-01T13:51:09.021Z,995.76
2018-05-01T13:52:14.378Z,995.76
2018-05-01T13:53:19.639Z,995.72
2018-05-01T13:54:24.023Z,995.61
2018-05-01T13:55:28.298Z,995.56
2018-05-01T13:56:33.588Z,995.63
2018-05-01T13:57:38.855Z,995.67
2018-05-01T13:58:43.219Z,995.76
2018-05-01T13:59:47.581Z,995.64
2018-05-01T14:00:52.949Z,995.61
2018-05-01T14:01:57.204Z,995.72
2018-05-01T14:03:01.494Z,995.67
2018-05-01T14:04:06.852Z,995.56
2018-05-01T14:05:12.209Z,995.67
2018-05-01T14:06:16.583Z,995.66
2018-05-01T14:07:20.852Z,995.63
2018-05-01T14:08:26.112Z,995.79
2018-05-01T14:09:31.375Z,995.7
2018-05-01T14:10:35.752Z,995.78
2018-05-01T14:11:40.018Z,995.7
2018-05-01T14:12:45.273Z,995.64
2018-05-01T14:13:50.536Z,995.69
2018-05-01T14:14:54.895Z,995.67
2018-05-01T14:16:03.264Z,995.67
2018-05-01T14:17:08.527Z,995.72
2018-05-01T14:18:13.885Z,995.64
2018-05-01T14:19:18.215Z,995.64
2018-05-01T14:20:22.382Z,995.67
2018-05-01T14:21:26.645Z,995.8
2018-05-01T14:22:32.004Z,995.77
2018-05-01T14:23:37.364Z,995.79
2018-05-01T14:24:41.724Z,995.77
2018-05-01T14:25:47.160Z,995.79
2018-05-01T14:26:51.403Z,995.76
2018-05-01T14:27:55.670Z,995.77
2018-05-01T14:29:00.030Z,995.75
2018-05-01T14:30:05.288Z,995.8
2018-05-01T14:31:10.553Z,995.69
2018-05-01T14:32:14.920Z,995.72
2018-05-01T14:33:19.186Z,995.72
2018-05-01T14:34:24.452Z,995.8
2018-05-01T14:35:29.723Z,995.69
2018-05-01T14:36:33.990Z,995.79
2018-05-01T14:37:41.350Z,995.88
2018-05-01T14:38:48.508Z,995.88
2018-05-01T14:39:53.869Z,995.79
2018-05-01T14:40:59.168Z,995.73
2018-05-01T14:42:06.449Z,995.85
2018-05-01T14:43:10.715Z,995.8
2018-05-01T14:44:15.079Z,995.79
2018-05-01T14:45:20.338Z,995.76
2018-05-01T14:46:25.707Z,995.7
2018-05-01T14:47:30.082Z,995.88
2018-05-01T14:48:35.378Z,995.77
2018-05-01T14:49:40.836Z,995.76
2018-05-01T14:50:45.212Z,995.83
2018-05-01T14:51:50.546Z,995.82
2018-05-01T14:52:55.932Z,995.95
2018-05-01T14:54:00.303Z,995.92
2018-05-01T14:55:04.665Z,996
2018-05-01T14:56:09.939Z,995.91
2018-05-01T14:57:15.202Z,995.92
2018-05-01T14:58:19.469Z,995.83
2018-05-01T14:59:23.732Z,995.83
2018-05-01T15:00:29.004Z,995.94
2018-05-01T15:01:34.412Z,995.95
2018-05-01T15:02:38.698Z,995.95
2018-05-01T15:03:42.961Z,995.94
2018-05-01T15:04:48.326Z,995.95
2018-05-01T15:05:53.698Z,995.98
2018-05-01T15:06:58.089Z,995.92
2018-05-01T15:08:03.349Z,995.95
2018-05-01T15:09:08.704Z,996.03
2018-05-01T15:10:12.968Z,996.06
2018-05-01T15:11:17.138Z,996
2018-05-01T15:12:21.390Z,995.89
2018-05-01T15:13:26.647Z,995.89
2018-05-01T15:14:31.908Z,995.88
2018-05-01T15:15:37.205Z,996.04
2018-05-01T15:16:45.573Z,995.91
2018-05-01T15:17:49.939Z,995.97
2018-05-01T15:18:55.309Z,995.98
2018-05-01T15:19:59.572Z,995.98
2018-05-01T15:21:03.944Z,995.92
2018-05-01T15:22:09.306Z,995.98
2018-05-01T15:23:14.669Z,996.03
2018-05-01T15:24:18.935Z,996.04
2018-05-01T15:25:23.250Z,995.97
2018-05-01T15:26:28.521Z,995.89
2018-05-01T15:27:33.884Z,996.03
2018-05-01T15:28:38.150Z,996.04
2018-05-01T15:29:42.511Z,996.04
2018-05-01T15:30:47.880Z,995.97
2018-05-01T15:31:52.136Z,996.08
2018-05-01T15:32:56.391Z,996.04
2018-05-01T15:34:01.656Z,996.06
2018-05-01T15:35:07.026Z,996.04
2018-05-01T15:36:11.294Z,996.07
2018-05-01T15:37:15.660Z,996.1
2018-05-01T15:38:20.923Z,996.16
2018-05-01T15:39:26.184Z,996.07
2018-05-01T15:40:31.556Z,996.06
2018-05-01T15:41:35.915Z,996.01
2018-05-01T15:42:41.278Z,996.07
2018-05-01T15:43:46.543Z,996.04
2018-05-01T15:44:50.820Z,996.07
2018-05-01T15:45:55.087Z,996.14
2018-05-01T15:47:00.355Z,996.03
2018-05-01T15:48:05.622Z,996.04
2018-05-01T15:49:11.010Z,996.08
2018-05-01T15:50:15.372Z,996.01
2018-05-01T15:51:20.644Z,996.04
2018-05-01T15:52:25.907Z,996.07
2018-05-01T15:53:31.265Z,996.03
2018-05-01T15:54:35.532Z,996.06
2018-05-01T15:55:39.899Z,996.04
2018-05-01T15:56:45.179Z,996.04
2018-05-01T15:57:50.544Z,996.07
2018-05-01T15:58:54.801Z,996
2018-05-01T16:00:02.164Z,996
2018-05-01T16:01:07.429Z,996.07
2018-05-01T16:02:12.692Z,996.01
2018-05-01T16:03:17.152Z,996
2018-05-01T16:04:22.508Z,996.01
2018-05-01T16:05:27.873Z,996.01
2018-05-01T16:06:32.243Z,996.04
2018-05-01T16:07:36.501Z,996
2018-05-01T16:08:41.857Z,996.07
2018-05-01T16:09:47.121Z,996.04
2018-05-01T16:10:51.497Z,996.07
2018-05-01T16:11:56.862Z,995.94
2018-05-01T16:13:02.219Z,995.98
2018-05-01T16:14:06.538Z,996.08
2018-05-01T16:15:13.806Z,996.03
2018-05-01T16:16:19.175Z,996.07
2018-05-01T16:17:26.439Z,996.08
2018-05-01T16:18:30.771Z,996.07
2018-05-01T16:19:35.128Z,996.05
2018-05-01T16:20:40.495Z,996.02
2018-05-01T16:21:45.757Z,996.07
2018-05-01T16:22:50.021Z,996.01
2018-05-01T16:23:54.308Z,996.19
2018-05-01T16:24:59.573Z,996.13
2018-05-01T16:26:04.852Z,996.08
2018-05-01T16:27:09.100Z,996.14
2018-05-01T16:28:13.369Z,996.22
2018-05-01T16:29:17.628Z,996.13
2018-05-01T16:30:23.000Z,996.08
2018-05-01T16:31:28.368Z,996.1
2018-05-01T16:32:32.642Z,996.1
2018-05-01T16:33:37.907Z,996.1
2018-05-01T16:34:43.274Z,996.05
2018-05-01T16:35:47.539Z,996.02
2018-05-01T16:36:51.802Z,996.02
2018-05-01T16:37:56.165Z,996.11
2018-05-01T16:39:01.529Z,996.02
2018-05-01T16:40:05.893Z,996.1
2018-05-01T16:41:10.163Z,996.05
2018-05-01T16:42:15.427Z,996.01
2018-05-01T16:43:20.790Z,995.98
2018-05-01T16:44:25.075Z,996.08
2018-05-01T16:45:29.449Z,995.96
2018-05-01T16:46:34.719Z,995.98
2018-05-01T16:47:39.887Z,995.99
2018-05-01T16:48:44.242Z,995.98
2018-05-01T16:49:48.501Z,995.95
2018-05-01T16:50:53.764Z,996.05
2018-05-01T16:51:59.123Z,996.08
2018-05-01T16:53:03.391Z,996.01
2018-05-01T16:54:07.754Z,995.93
2018-05-01T16:55:13.016Z,995.95
2018-05-01T16:56:18.385Z,996.02
2018-05-01T16:57:22.652Z,995.93
2018-05-01T16:58:26.894Z,995.96
2018-05-01T16:59:32.257Z,996.02
2018-05-01T17:00:37.522Z,996.01
2018-05-01T17:01:41.880Z,995.93
2018-05-01T17:02:46.136Z,996.08
2018-05-01T17:03:51.397Z,995.95
2018-05-01T17:04:56.653Z,996.01
2018-05-01T17:06:02.021Z,996.01
2018-05-01T17:07:06.278Z,996.07
2018-05-01T17:08:11.637Z,995.95
2018-05-01T17:09:16.899Z,996.01
2018-05-01T17:10:22.160Z,996.05
2018-05-01T17:11:26.537Z,996.05
2018-05-01T17:12:31.793Z,996.05
2018-05-01T17:13:37.046Z,996.07
2018-05-01T17:14:42.211Z,995.98
2018-05-01T17:15:46.488Z,996.08
2018-05-01T17:16:50.749Z,996.01
2018-05-01T17:17:59.120Z,996.05
2018-05-01T17:19:04.482Z,996.05
2018-05-01T17:20:09.745Z,996.04
2018-05-01T17:21:14.017Z,996.07
2018-05-01T17:22:18.289Z,996.01
2018-05-01T17:23:23.554Z,996.16
2018-05-01T17:24:29.012Z,996.04
2018-05-01T17:25:33.391Z,996.22
2018-05-01T17:26:38.746Z,996.13
2018-05-01T17:27:44.104Z,996.13
2018-05-01T17:28:48.365Z,996.11
2018-05-01T17:29:52.627Z,996.14
2018-05-01T17:30:58.003Z,996.13
2018-05-01T17:32:03.268Z,996.24
2018-05-01T17:33:07.621Z,996.16
2018-05-01T17:34:11.982Z,996.27
2018-05-01T17:35:17.336Z,996.19
2018-05-01T17:36:21.605Z,996.19
2018-05-01T17:37:25.963Z,996.17
2018-05-01T17:38:31.227Z,996.19
2018-05-01T17:39:36.592Z,996.2
2018-05-01T17:40:40.958Z,996.19
2018-05-01T17:41:46.200Z,996.16
2018-05-01T17:42:51.571Z,996.1
2018-05-01T17:43:56.830Z,996.19
2018-05-01T17:45:01.200Z,996.19
2018-05-01T17:46:05.569Z,996.13
2018-05-01T17:47:10.837Z,996.19
2018-05-01T17:48:16.103Z,996.16
2018-05-01T17:49:20.362Z,996.19
2018-05-01T17:50:24.729Z,996.13
2018-05-01T17:51:29.989Z,996.22
2018-05-01T17:52:35.253Z,996.2
2018-05-01T17:53:39.616Z,996.25
2018-05-01T17:54:43.877Z,996.22
2018-05-01T17:55:49.245Z,996.35
2018-05-01T17:56:54.600Z,996.35
2018-05-01T17:57:58.913Z,996.33
2018-05-01T17:59:04.269Z,996.33
2018-05-01T18:00:09.529Z,996.33
2018-05-01T18:01:13.892Z,996.36
2018-05-01T18:02:18.259Z,996.27
2018-05-01T18:03:23.625Z,996.27
2018-05-01T18:04:28.039Z,996.3
2018-05-01T18:05:32.316Z,996.23
2018-05-01T18:06:37.671Z,996.32
2018-05-01T18:07:43.031Z,996.3
2018-05-01T18:08:47.291Z,996.29
2018-05-01T18:09:51.555Z,996.29
2018-05-01T18:10:56.724Z,996.39
2018-05-01T18:12:01.988Z,996.3
2018-05-01T18:13:07.378Z,996.38
2018-05-01T18:14:11.644Z,996.36
2018-05-01T18:15:15.902Z,996.36
2018-05-01T18:16:21.177Z,996.44
2018-05-01T18:17:26.466Z,996.42
2018-05-01T18:18:34.726Z,996.42
2018-05-01T18:19:38.990Z,996.44
2018-05-01T18:20:43.268Z,996.45
2018-05-01T18:21:48.529Z,996.5
2018-05-01T18:22:53.781Z,996.41
2018-05-01T18:23:58.068Z,996.47
2018-05-01T18:25:02.226Z,996.44
2018-05-01T18:26:07.496Z,996.42
2018-05-01T18:27:12.862Z,996.47
2018-05-01T18:28:18.215Z,996.58
2018-05-01T18:29:22.478Z,996.53
2018-05-01T18:30:26.853Z,996.5
2018-05-01T18:31:32.211Z,996.47
2018-05-01T18:32:36.576Z,996.52
2018-05-01T18:33:40.834Z,996.61
2018-05-01T18:34:46.202Z,996.58
2018-05-01T18:35:51.469Z,996.61
2018-05-01T18:36:55.837Z,996.62
2018-05-01T18:38:00.206Z,996.61
2018-05-01T18:39:05.470Z,996.65
2018-05-01T18:40:10.738Z,996.66
2018-05-01T18:41:15.011Z,996.56
2018-05-01T18:42:19.273Z,996.61
2018-05-01T18:43:24.532Z,996.58
2018-05-01T18:44:30.842Z,996.68
2018-05-01T18:45:54.563Z,996.58
2018-05-01T18:46:58.924Z,996.65
2018-05-01T18:48:04.311Z,996.68
2018-05-01T18:49:09.668Z,996.58
2018-05-01T18:50:13.930Z,996.59
2018-05-01T18:51:18.207Z,996.59
2018-05-01T18:52:23.564Z,996.62
2018-05-01T18:53:28.733Z,996.69
2018-05-01T18:54:33.001Z,996.62
2018-05-01T18:55:37.279Z,996.71
2018-05-01T18:56:42.646Z,996.59
2018-05-01T18:57:47.949Z,996.58
2018-05-01T18:58:52.225Z,996.55
2018-05-01T18:59:56.688Z,996.65
2018-05-01T19:01:02.160Z,996.59
2018-05-01T19:02:06.520Z,996.63
2018-05-01T19:03:10.975Z,996.68
2018-05-01T19:04:16.243Z,996.65
2018-05-01T19:05:20.579Z,996.53
2018-05-01T19:06:25.049Z,996.63
2018-05-01T19:07:30.414Z,996.68
2018-05-01T19:08:34.676Z,996.61
2018-05-01T19:09:39.042Z,996.61
2018-05-01T19:10:44.417Z,996.62
2018-05-01T19:11:49.696Z,996.58
2018-05-01T19:12:54.074Z,996.59
2018-05-01T19:13:59.435Z,996.66
2018-05-01T19:15:04.700Z,996.65
2018-05-01T19:16:08.964Z,996.66
2018-05-01T19:17:13.229Z,996.59
2018-05-01T19:18:17.518Z,996.63
2018-05-01T19:19:22.882Z,996.63
2018-05-01T19:20:27.156Z,996.63
2018-05-01T19:21:31.420Z,996.65
2018-05-01T19:22:36.681Z,996.71
2018-05-01T19:23:42.077Z,996.66
2018-05-01T19:24:46.351Z,996.71
2018-05-01T19:25:50.630Z,996.72
2018-05-01T19:26:55.892Z,996.75
2018-05-01T19:28:01.248Z,996.78
2018-05-01T19:29:06.505Z,996.71
2018-05-01T19:30:10.769Z,996.77
2018-05-01T19:31:15.142Z,996.78
2018-05-01T19:32:20.399Z,996.87
2018-05-01T19:33:25.660Z,996.86
2018-05-01T19:34:30.021Z,996.9
2018-05-01T19:35:34.191Z,996.87
2018-05-01T19:36:39.448Z,996.83
2018-05-01T19:37:44.706Z,996.9
2018-05-01T19:38:50.064Z,996.89
2018-05-01T19:39:54.436Z,996.89
2018-05-01T19:40:59.822Z,996.84
2018-05-01T19:42:05.093Z,996.91
2018-05-01T19:43:09.359Z,996.84
2018-05-01T19:44:13.721Z,996.89
2018-05-01T19:45:18.991Z,996.96
2018-05-01T19:46:26.270Z,996.9
2018-05-01T19:47:31.536Z,996.89
2018-05-01T19:48:35.899Z,996.9
2018-05-01T19:49:41.270Z,996.81
2018-05-01T19:50:46.629Z,996.86
2018-05-01T19:51:50.800Z,996.87
2018-05-01T19:52:55.064Z,996.84
2018-05-01T19:53:59.326Z,996.87
2018-05-01T19:55:04.590Z,996.91
2018-05-01T19:56:09.857Z,996.99
2018-05-01T19:57:14.216Z,996.87
2018-05-01T19:58:18.483Z,996.94
2018-05-01T19:59:23.753Z,996.97
2018-05-01T20:00:29.018Z,996.94
2018-05-01T20:01:34.279Z,996.96
2018-05-01T20:02:38.640Z,996.88
2018-05-01T20:03:43.028Z,996.94
2018-05-01T20:04:48.503Z,996.99
2018-05-01T20:05:52.847Z,996.9
2018-05-01T20:06:58.216Z,996.93
2018-05-01T20:08:03.677Z,996.99
2018-05-01T20:09:08.017Z,997.05
2018-05-01T20:10:13.362Z,996.88
2018-05-01T20:11:18.709Z,996.94
2018-05-01T20:12:23.077Z,996.93
2018-05-01T20:13:27.443Z,997.05
2018-05-01T20:14:32.697Z,997.05
2018-05-01T20:15:38.060Z,996.93
2018-05-01T20:16:42.425Z,996.97
2018-05-01T20:17:47.692Z,996.97
2018-05-01T20:18:53.155Z,996.93
2018-05-01T20:19:57.502Z,997.03
2018-05-01T20:21:01.781Z,996.97
2018-05-01T20:22:07.045Z,997.05
2018-05-01T20:23:13.408Z,996.99
2018-05-01T20:24:17.762Z,996.97
2018-05-01T20:25:23.127Z,996.99
2018-05-01T20:26:28.485Z,997
2018-05-01T20:27:32.845Z,997.05
2018-05-01T20:28:37.099Z,997.02
2018-05-01T20:29:42.456Z,997.08
2018-05-01T20:30:47.731Z,997.05
2018-05-01T20:31:52.020Z,997.05
2018-05-01T20:32:56.278Z,997
2018-05-01T20:34:01.632Z,997.06
2018-05-01T20:35:06.896Z,997.06
2018-05-01T20:36:11.164Z,996.97
2018-05-01T20:37:15.471Z,997.11
2018-05-01T20:38:20.638Z,997.15
2018-05-01T20:39:26.001Z,997.18
2018-05-01T20:40:31.269Z,997.06
2018-05-01T20:41:35.536Z,997.11
2018-05-01T20:42:39.804Z,997.09
2018-05-01T20:43:45.165Z,997.11
2018-05-01T20:44:50.430Z,997.09
2018-05-01T20:45:54.799Z,997.08
2018-05-01T20:47:03.064Z,997.14
2018-05-01T20:48:08.431Z,997.11
2018-05-01T20:49:13.789Z,997.11
2018-05-01T20:50:18.144Z,997.15
2018-05-01T20:51:22.511Z,997.14
2018-05-01T20:52:27.800Z,997.19
2018-05-01T20:53:33.064Z,997.17
2018-05-01T20:54:37.437Z,997.15
2018-05-01T20:55:41.715Z,997.09
2018-05-01T20:56:46.972Z,997.11
2018-05-01T20:57:52.237Z,997.19
2018-05-01T20:58:56.581Z,997.2
2018-05-01T21:00:00.847Z,997.14
2018-05-01T21:01:06.112Z,997.18
2018-05-01T21:02:11.375Z,997.18
2018-05-01T21:03:16.640Z,997.2
2018-05-01T21:04:20.906Z,997.24
2018-05-01T21:05:25.280Z,997.31
2018-05-01T21:06:30.644Z,997.36
2018-05-01T21:07:36.005Z,997.31
2018-05-01T21:08:40.271Z,997.28
2018-05-01T21:09:44.630Z,997.28
2018-05-01T21:10:50.080Z,997.31
2018-05-01T21:11:54.265Z,997.31
2018-05-01T21:12:58.529Z,997.31
2018-05-01T21:14:03.786Z,997.3
2018-05-01T21:15:09.069Z,997.33
2018-05-01T21:16:14.441Z,997.28
2018-05-01T21:17:18.699Z,997.34
2018-05-01T21:18:22.956Z,997.4
2018-05-01T21:19:28.218Z,997.33
2018-05-01T21:20:33.488Z,997.33
2018-05-01T21:21:37.852Z,997.36
2018-05-01T21:22:42.116Z,997.3
2018-05-01T21:23:47.384Z,997.36
2018-05-01T21:24:52.644Z,997.33
2018-05-01T21:25:58.018Z,997.4
2018-05-01T21:27:02.383Z,997.24
2018-05-01T21:28:07.649Z,997.28
2018-05-01T21:29:12.906Z,997.3
2018-05-01T21:30:18.071Z,997.34
2018-05-01T21:31:22.341Z,997.3
2018-05-01T21:32:26.604Z,997.33
2018-05-01T21:33:31.772Z,997.3
2018-05-01T21:34:37.143Z,997.28
2018-05-01T21:35:42.417Z,997.31
2018-05-01T21:36:46.675Z,997.37
2018-05-01T21:37:51.061Z,997.31
2018-05-01T21:38:56.323Z,997.3
2018-05-01T21:40:01.590Z,997.31
2018-05-01T21:41:05.956Z,997.27
2018-05-01T21:42:10.315Z,997.37
2018-05-01T21:43:15.577Z,997.3
2018-05-01T21:44:20.842Z,997.25
2018-05-01T21:45:25.113Z,997.25
2018-05-01T21:46:29.479Z,997.24
2018-05-01T21:47:37.743Z,997.31
2018-05-01T21:48:43.009Z,997.24
2018-05-01T21:49:48.366Z,997.25
2018-05-01T21:50:55.735Z,997.28
2018-05-01T21:52:00.003Z,997.27
2018-05-01T21:53:05.269Z,997.25
2018-05-01T21:54:10.526Z,997.3
2018-05-01T21:55:14.854Z,997.34
2018-05-01T21:56:19.123Z,997.24
2018-05-01T21:57:24.392Z,997.27
2018-05-01T21:58:29.749Z,997.3
2018-05-01T21:59:35.133Z,997.3
2018-05-01T22:00:39.503Z,997.25
2018-05-01T22:01:44.765Z,997.31
2018-05-01T22:02:49.924Z,997.3
2018-05-01T22:03:55.295Z,997.36
2018-05-01T22:04:59.560Z,997.33
2018-05-01T22:06:03.844Z,997.28
2018-05-01T22:07:09.103Z,997.36
2018-05-01T22:08:14.363Z,997.33
2018-05-01T22:09:18.634Z,997.34
2018-05-01T22:10:22.903Z,997.37
2018-05-01T22:11:27.163Z,997.31
2018-05-01T22:12:32.326Z,997.28
2018-05-01T22:13:37.583Z,997.36
2018-05-01T22:14:42.945Z,997.31
2018-05-01T22:15:47.216Z,997.21
2018-05-01T22:16:54.571Z,997.3
2018-05-01T22:17:59.857Z,997.26
2018-05-01T22:19:05.115Z,997.3
2018-05-01T22:20:09.389Z,997.37
2018-05-01T22:21:13.658Z,997.37
2018-05-01T22:22:18.920Z,997.29
2018-05-01T22:23:24.278Z,997.33
2018-05-01T22:24:28.641Z,997.34
2018-05-01T22:25:33.007Z,997.36
2018-05-01T22:26:38.276Z,997.33
2018-05-01T22:27:43.648Z,997.4
2018-05-01T22:28:47.949Z,997.32
2018-05-01T22:29:52.223Z,997.35
2018-05-01T22:30:57.494Z,997.3
2018-05-01T22:32:02.763Z,997.3
2018-05-01T22:33:07.120Z,997.38
2018-05-01T22:34:11.389Z,997.36
2018-05-01T22:35:16.751Z,997.29
2018-05-01T22:36:22.113Z,997.39
2018-05-01T22:37:26.381Z,997.39
2018-05-01T22:38:30.646Z,997.45
2018-05-01T22:39:35.804Z,997.48
2018-05-01T22:40:40.995Z,997.45
2018-05-01T22:41:46.237Z,997.42
2018-05-01T22:42:51.597Z,997.43
2018-05-01T22:43:55.763Z,997.49
2018-05-01T22:45:00.046Z,997.48
2018-05-01T22:46:05.322Z,997.46
2018-05-01T22:47:13.512Z,997.36
2018-05-01T22:48:20.781Z,997.48
2018-05-01T22:49:26.039Z,997.38
2018-05-01T22:50:30.502Z,997.44
2018-05-01T22:51:35.759Z,997.51
2018-05-01T22:52:41.019Z,997.36
2018-05-01T22:53:47.387Z,997.41
2018-05-01T22:54:51.753Z,997.44
2018-05-01T22:55:57.020Z,997.39
2018-05-01T22:57:02.288Z,997.3
2018-05-01T22:58:07.554Z,997.32
2018-05-01T22:59:11.716Z,997.35
2018-05-01T23:00:16.084Z,997.32
2018-05-01T23:01:21.249Z,997.32
2018-05-01T23:02:26.512Z,997.24
2018-05-01T23:03:31.879Z,997.33
2018-05-01T23:04:36.140Z,997.35
2018-05-01T23:05:40.511Z,997.32
2018-05-01T23:06:45.772Z,997.35
2018-05-01T23:07:51.033Z,997.23
2018-05-01T23:08:55.398Z,997.35
2018-05-01T23:09:59.656Z,997.38
2018-05-01T23:11:05.021Z,997.35
2018-05-01T23:12:10.380Z,997.32
2018-05-01T23:13:14.737Z,997.29
2018-05-01T23:14:20.100Z,997.32
2018-05-01T23:15:25.356Z,997.3
2018-05-01T23:16:30.624Z,997.33
2018-05-01T23:17:34.886Z,997.32
2018-05-01T23:18:39.252Z,997.35
2018-05-01T23:19:44.516Z,997.38
2018-05-01T23:20:49.892Z,997.26
2018-05-01T23:21:54.254Z,997.33
2018-05-01T23:22:59.516Z,997.33
2018-05-01T23:24:04.780Z,997.27
2018-05-01T23:25:10.045Z,997.17
2018-05-01T23:26:14.410Z,997.27
2018-05-01T23:27:18.750Z,997.29
2018-05-01T23:28:24.019Z,997.23
2018-05-01T23:29:29.383Z,997.32
2018-05-01T23:30:33.659Z,997.32
2018-05-01T23:31:38.025Z,997.33
2018-05-01T23:32:43.378Z,997.29
2018-05-01T23:33:47.733Z,997.22
2018-05-01T23:34:51.988Z,997.24
2018-05-01T23:35:57.360Z,997.32
2018-05-01T23:37:02.630Z,997.25
2018-05-01T23:38:06.991Z,997.23
2018-05-01T23:39:11.250Z,997.29
2018-05-01T23:40:16.518Z,997.26
2018-05-01T23:41:21.791Z,997.2
2018-05-01T23:42:27.162Z,997.3
2018-05-01T23:43:31.528Z,997.27
2018-05-01T23:44:36.887Z,997.22
2018-05-01T23:45:42.263Z,997.2
2018-05-01T23:46:46.641Z,997.22
2018-05-01T23:47:51.901Z,997.17
2018-05-01T23:49:00.268Z,997.25
2018-05-01T23:50:05.533Z,997.2
2018-05-01T23:51:09.802Z,997.17
2018-05-01T23:52:14.069Z,997.17
2018-05-01T23:53:19.424Z,997.19
2018-05-01T23:54:24.690Z,997.2
2018-05-01T23:55:28.965Z,997.17
2018-05-01T23:56:33.229Z,997.14
2018-05-01T23:57:37.392Z,997.11
2018-05-01T23:58:42.752Z,997.13
2018-05-01T23:59:48.015Z,997.17
